createdAt,value
2019-03-19T00:04:15.717Z,13.3
2019-03-19T00:09:15.743Z,13.4
2019-03-19T00:14:15.702Z,13.4
2019-03-19T00:19:15.741Z,13.4
2019-03-19T00:24:15.687Z,13.4
2019-03-19T00:29:15.680Z,13.2
2019-03-19T00:34:15.688Z,13
2019-03-19T00:39:15.655Z,12.9
2019-03-19T00:44:16.929Z,13
2019-03-19T00:49:15.648Z,13.1
2019-03-19T00:54:15.651Z,13.1
2019-03-19T00:59:15.638Z,13.2
2019-03-19T01:04:15.688Z,13.2
2019-03-19T01:09:15.705Z,13.2
2019-03-19T01:14:15.657Z,13.2
2019-03-19T01:19:15.730Z,13.2
2019-03-19T01:24:15.621Z,13.2
2019-03-19T01:29:15.601Z,13.2
2019-03-19T01:34:15.608Z,13.2
2019-03-19T01:39:15.623Z,12.9
2019-03-19T01:44:15.589Z,12.8
2019-03-19T01:49:15.621Z,12.7
2019-03-19T01:54:15.634Z,12.8
2019-03-19T01:59:15.579Z,12.8
2019-03-19T02:04:15.569Z,12.8
2019-03-19T02:09:15.558Z,12.8
2019-03-19T02:14:15.589Z,12.8
2019-03-19T02:19:15.593Z,12.8
2019-03-19T02:24:15.588Z,12.8
2019-03-19T02:29:15.574Z,12.8
2019-03-19T02:34:15.653Z,12.8
2019-03-19T02:39:15.612Z,12.7
2019-03-19T02:44:15.580Z,12.7
2019-03-19T02:49:15.553Z,12.5
2019-03-19T02:54:15.546Z,12.2
2019-03-19T02:59:15.559Z,12.2
2019-03-19T03:04:15.571Z,12.3
2019-03-19T03:09:15.514Z,12.3
2019-03-19T03:14:15.530Z,12.4
2019-03-19T03:19:15.507Z,12.4
2019-03-19T03:24:15.535Z,12.4
2019-03-19T03:29:15.566Z,12.4
2019-03-19T03:34:15.564Z,12.4
2019-03-19T03:39:15.485Z,12.4
2019-03-19T03:44:15.509Z,12.3
2019-03-19T03:49:15.495Z,12.3
2019-03-19T03:54:15.590Z,12.3
2019-03-19T03:59:15.447Z,12.3
2019-03-19T04:04:15.491Z,12.3
2019-03-19T04:09:15.512Z,12.3
2019-03-19T04:14:15.506Z,12.3
2019-03-19T04:19:15.440Z,12.1
2019-03-19T04:24:15.440Z,11.9
2019-03-19T04:29:15.462Z,11.8
2019-03-19T04:34:15.400Z,11.9
2019-03-19T04:39:15.464Z,12
2019-03-19T04:44:15.429Z,12
2019-03-19T04:49:15.426Z,12
2019-03-19T04:54:15.430Z,12.1
2019-03-19T04:59:15.439Z,12.1
2019-03-19T05:04:15.399Z,12.1
2019-03-19T05:09:15.389Z,12.1
2019-03-19T05:14:15.366Z,12.1
2019-03-19T05:19:15.400Z,12.1
2019-03-19T05:24:15.358Z,12.1
2019-03-19T05:29:15.372Z,12.2
2019-03-19T05:34:15.395Z,12.2
2019-03-19T05:39:15.336Z,12
2019-03-19T05:44:15.340Z,11.8
2019-03-19T05:49:15.381Z,11.7
2019-03-19T05:54:15.656Z,11.8
2019-03-19T05:59:15.347Z,11.7
2019-03-19T06:04:15.367Z,11.6
2019-03-19T06:09:15.307Z,11.5
2019-03-19T06:14:15.329Z,11.5
2019-03-19T06:19:15.294Z,11.6
2019-03-19T06:24:15.359Z,11.7
2019-03-19T06:29:15.305Z,11.8
2019-03-19T06:34:15.345Z,12
2019-03-19T06:39:15.305Z,12.1
2019-03-19T06:44:15.254Z,12.1
2019-03-19T06:49:15.355Z,12.1
2019-03-19T06:54:15.315Z,12.1
2019-03-19T06:59:15.272Z,12.1
2019-03-19T07:04:15.275Z,12.1
2019-03-19T07:09:15.277Z,12.2
2019-03-19T07:14:15.267Z,12.2
2019-03-19T07:19:15.281Z,12.2
2019-03-19T07:24:15.233Z,12.2
2019-03-19T07:29:15.255Z,12.2
2019-03-19T07:34:15.257Z,12.2
2019-03-19T07:39:15.286Z,12.2
2019-03-19T07:44:16.809Z,12.3
2019-03-19T07:49:15.252Z,12.3
2019-03-19T07:54:15.231Z,12.3
2019-03-19T07:59:15.202Z,12.3
2019-03-19T08:04:15.236Z,12.3
2019-03-19T08:09:15.234Z,12.4
2019-03-19T08:14:15.191Z,12.5
2019-03-19T08:19:15.205Z,12.6
2019-03-19T08:24:15.190Z,12.6
2019-03-19T08:29:15.204Z,12.6
2019-03-19T08:34:15.158Z,12.6
2019-03-19T08:39:15.166Z,12.6
2019-03-19T08:44:15.162Z,12.6
2019-03-19T08:49:15.156Z,12.6
2019-03-19T08:54:15.149Z,12.5
2019-03-19T08:59:15.164Z,12.5
2019-03-19T09:04:15.136Z,12.5
2019-03-19T09:09:15.110Z,12.5
2019-03-19T09:14:15.166Z,12.5
2019-03-19T09:19:15.130Z,12.5
2019-03-19T09:24:15.125Z,12.5
2019-03-19T09:29:17.543Z,12.5
2019-03-19T09:34:15.159Z,12.5
2019-03-19T09:39:15.099Z,12.5
2019-03-19T09:44:15.061Z,12.5
2019-03-19T09:49:15.149Z,12.5
2019-03-19T09:54:15.182Z,12.6
2019-03-19T09:59:15.092Z,12.5
2019-03-19T10:04:15.058Z,12.6
2019-03-19T10:09:15.088Z,12.6
2019-03-19T10:14:15.068Z,12.6
2019-03-19T10:19:15.107Z,12.6
2019-03-19T10:24:15.074Z,12.7
2019-03-19T10:29:15.061Z,12.6
2019-03-19T10:34:15.057Z,12.7
2019-03-19T10:39:15.035Z,12.7
2019-03-19T10:44:15.054Z,12.7
2019-03-19T10:49:15.046Z,12.8
2019-03-19T10:54:15.000Z,12.7
2019-03-19T10:59:15.064Z,12.8
2019-03-19T11:04:14.977Z,12.8
2019-03-19T11:09:14.988Z,12.8
2019-03-19T11:14:15.052Z,12.8
2019-03-19T11:19:14.989Z,12.8
2019-03-19T11:24:14.965Z,12.9
2019-03-19T11:29:14.981Z,12.9
2019-03-19T11:34:14.959Z,12.9
2019-03-19T11:39:14.992Z,12.9
2019-03-19T11:44:14.967Z,12.9
2019-03-19T11:49:14.992Z,12.9
2019-03-19T11:54:14.958Z,12.9
2019-03-19T11:59:14.940Z,12.9
2019-03-19T12:04:14.977Z,12.9
2019-03-19T12:09:14.954Z,12.9
2019-03-19T12:14:16.099Z,13
2019-03-19T12:19:14.960Z,13
2019-03-19T12:24:14.910Z,13
2019-03-19T12:29:14.924Z,13
2019-03-19T12:34:14.943Z,13
2019-03-19T12:39:14.921Z,13
2019-03-19T12:44:14.878Z,13.1
2019-03-19T12:49:14.924Z,13
2019-03-19T12:54:14.886Z,13
2019-03-19T12:59:20.849Z,13.1
2019-03-19T13:04:14.889Z,13.1
2019-03-19T13:09:14.874Z,13.1
2019-03-19T13:14:14.878Z,13.1
2019-03-19T13:19:14.850Z,13.1
2019-03-19T13:24:17.616Z,13.1
2019-03-19T13:29:14.857Z,13.1
2019-03-19T13:34:14.852Z,13.1
2019-03-19T13:39:14.880Z,13.1
2019-03-19T13:44:14.846Z,13.1
2019-03-19T13:49:14.859Z,13.1
2019-03-19T13:54:16.970Z,13.1
2019-03-19T13:59:14.918Z,13.1
2019-03-19T14:04:14.801Z,13.1
2019-03-19T14:09:14.838Z,13.1
2019-03-19T14:14:14.807Z,13.1
2019-03-19T14:19:14.787Z,13.1
2019-03-19T14:24:14.837Z,13.1
2019-03-19T14:29:14.792Z,13.1
2019-03-19T14:34:14.753Z,13.1
2019-03-19T14:39:14.817Z,13.1
2019-03-19T14:44:14.785Z,13.1
2019-03-19T14:49:14.769Z,13.2
2019-03-19T14:54:14.773Z,13.1
2019-03-19T14:59:14.749Z,13.1
2019-03-19T15:04:14.749Z,13.2
2019-03-19T15:09:14.791Z,13.1
2019-03-19T15:14:14.736Z,13.1
2019-03-19T15:19:14.755Z,13.1
2019-03-19T15:29:14.746Z,13.2
2019-03-19T15:34:14.729Z,13.2
2019-03-19T15:44:15.441Z,13.2
2019-03-19T15:49:15.438Z,13.2
2019-03-19T15:54:15.428Z,13.2
2019-03-19T15:59:15.441Z,13.2
2019-03-19T16:04:15.407Z,13.2
2019-03-19T16:09:15.420Z,13.2
2019-03-19T16:14:15.426Z,13.2
2019-03-19T16:19:15.387Z,13.1
2019-03-19T16:24:15.411Z,13.1
2019-03-19T16:29:15.458Z,13.1
2019-03-19T16:34:15.364Z,13.1
2019-03-19T16:39:15.400Z,13.1
2019-03-19T16:44:15.394Z,13.1
2019-03-19T16:49:15.405Z,13.1
2019-03-19T16:54:15.388Z,13.1
2019-03-19T16:59:21.468Z,13
2019-03-19T17:04:20.173Z,13
2019-03-19T17:09:20.329Z,13
2019-03-19T17:14:20.174Z,13
2019-03-19T17:19:20.180Z,13
2019-03-19T17:24:21.602Z,13
2019-03-19T17:29:20.146Z,13
2019-03-19T17:34:20.178Z,13
2019-03-19T17:39:20.142Z,13
2019-03-19T17:44:20.135Z,13
2019-03-19T17:49:20.122Z,13
2019-03-19T17:54:20.114Z,13
2019-03-19T17:59:20.142Z,13
2019-03-19T18:04:20.173Z,13
2019-03-19T18:09:20.101Z,13
2019-03-19T18:14:20.092Z,13
2019-03-19T18:19:20.083Z,13
2019-03-19T18:24:20.091Z,13
2019-03-19T18:29:20.084Z,12.9
2019-03-19T18:34:20.046Z,12.8
2019-03-19T18:39:20.063Z,12.6
2019-03-19T18:44:20.076Z,12.6
2019-03-19T18:49:20.028Z,12.6
2019-03-19T18:54:20.018Z,12.7
2019-03-19T18:59:20.053Z,12.7
2019-03-19T19:04:20.005Z,12.8
2019-03-19T19:09:20.026Z,12.8
2019-03-19T19:14:20.141Z,12.8
2019-03-19T19:19:20.021Z,12.8
2019-03-19T19:24:20.033Z,12.8
2019-03-19T19:29:21.122Z,12.8
2019-03-19T19:34:21.508Z,12.7
2019-03-19T19:39:21.441Z,12.6
2019-03-19T19:44:21.513Z,12.5
2019-03-19T19:49:21.614Z,12.4
2019-03-19T19:54:21.498Z,12.5
2019-03-19T19:59:21.532Z,12.5
2019-03-19T20:04:21.450Z,12.6
2019-03-19T20:09:21.449Z,12.6
2019-03-19T20:14:21.430Z,12.7
2019-03-19T20:19:21.434Z,12.7
2019-03-19T20:24:21.480Z,12.7
2019-03-19T20:29:21.431Z,12.7
2019-03-19T20:34:21.446Z,12.7
2019-03-19T20:39:21.415Z,12.7
2019-03-19T20:44:21.576Z,12.7
2019-03-19T20:49:21.383Z,12.7
2019-03-19T20:54:21.384Z,12.7
2019-03-19T20:59:21.403Z,12.7
2019-03-19T21:04:21.390Z,12.7
2019-03-19T21:09:21.380Z,12.7
2019-03-19T21:14:21.391Z,12.6
2019-03-19T21:19:21.431Z,12.5
2019-03-19T21:24:21.336Z,12.4
2019-03-19T21:29:21.362Z,12.4
2019-03-19T21:34:21.388Z,12.3
2019-03-19T21:39:21.353Z,12.2
2019-03-19T21:48:13.329Z,12.1
2019-03-19T21:53:13.277Z,12.1
2019-03-19T21:58:13.259Z,12.2
2019-03-19T22:03:13.274Z,12.2
2019-03-19T22:08:13.273Z,12.2
2019-03-19T22:13:13.268Z,12.2
2019-03-19T22:18:13.261Z,12.2
2019-03-19T22:23:13.306Z,12.2
2019-03-19T22:28:13.254Z,12.2
2019-03-19T22:33:13.265Z,12.2
2019-03-19T22:38:13.259Z,12.2
2019-03-19T22:43:13.208Z,12.2
2019-03-19T22:48:17.149Z,12.2
2019-03-19T22:53:17.116Z,12.2
2019-03-19T22:58:17.119Z,12.2
2019-03-19T23:03:17.149Z,12.2
2019-03-19T23:08:17.132Z,12.2
2019-03-19T23:13:17.082Z,12.2
2019-03-19T23:18:17.097Z,12.2
2019-03-19T23:23:17.119Z,12.2
2019-03-19T23:28:17.103Z,12.2
2019-03-19T23:33:17.112Z,12.2
2019-03-19T23:38:17.054Z,12.2
2019-03-19T23:43:17.142Z,12.2
2019-03-19T23:48:17.045Z,12.2
2019-03-19T23:53:17.071Z,12.2
2019-03-19T23:58:17.056Z,12.1
